Time;durP1;ratioP1;P1;durP2;ratioP2;P2;SDS_P1;SDS_P2;PMS_P1;PMS_P2;Temp;Humidity;BMP_temperature;BMP_pressure;BME280_temperature;BME280_humidity;BME280_pressure;Samples;Min_cycle;Max_cycle;Signal;HPM_P1;HPM_P2
2022/08/30 00:02:13;;;;;;;5.68;2.30;;;;;;;24.93;38.29;99928.31;4122427;28;20292;-65
2022/08/30 00:04:17;;;;;;;8.05;2.60;;;;;;;25.40;37.36;99919.69;4119603;28;20256;-63
2022/08/30 00:06:19;;;;;;;5.93;2.90;;;;;;;25.72;37.07;99919.78;4124213;28;20742;-65
2022/08/30 00:08:21;;;;;;;4.63;2.70;;;;;;;25.39;37.52;99939.81;4124233;28;20646;-63
2022/08/30 00:10:25;;;;;;;5.65;2.97;;;;;;;25.71;37.05;99928.22;4122494;28;20276;-63
2022/08/30 00:12:26;;;;;;;4.53;2.92;;;;;;;25.65;37.14;99924.63;4121366;28;20253;-64
2022/08/30 00:14:28;;;;;;;4.25;2.60;;;;;;;25.56;37.33;99929.69;4118873;28;20245;-65
2022/08/30 00:16:30;;;;;;;5.05;2.42;;;;;;;25.15;37.98;99937.31;4123283;28;20238;-64
2022/08/30 00:18:33;;;;;;;4.47;2.67;;;;;;;25.18;37.54;99936.81;4123636;28;20764;-65
2022/08/30 00:20:37;;;;;;;6.18;2.80;;;;;;;24.72;38.30;99940.75;4121674;28;20866;-64
2022/08/30 00:22:39;;;;;;;4.05;2.60;;;;;;;25.15;38.07;99933.78;4119717;28;20242;-63
2022/08/30 00:24:40;;;;;;;3.22;2.60;;;;;;;25.37;37.42;99929.22;4120883;28;20250;-65
2022/08/30 00:26:42;;;;;;;3.92;2.75;;;;;;;24.94;37.88;99925.34;4118824;28;20301;-65
2022/08/30 00:28:44;;;;;;;4.25;2.85;;;;;;;24.90;38.05;99926.88;4120126;28;20238;-64
2022/08/30 00:30:46;;;;;;;4.28;2.80;;;;;;;25.09;38.24;99918.44;4121657;28;20241;-64
2022/08/30 00:32:48;;;;;;;6.70;2.60;;;;;;;25.19;37.79;99921.31;4122961;28;20284;-64
2022/08/30 00:34:51;;;;;;;4.03;2.47;;;;;;;25.47;37.45;99919.50;4124623;28;20233;-65
2022/08/30 00:36:53;;;;;;;3.85;2.60;;;;;;;24.68;38.79;99918.66;4120953;28;20241;-64
2022/08/30 00:38:55;;;;;;;8.20;3.15;;;;;;;24.62;38.35;99925.91;4121279;28;20711;-64
2022/08/30 00:40:58;;;;;;;5.82;2.80;;;;;;;24.38;39.13;99917.13;4120505;28;20234;-64
2022/08/30 00:43:03;;;;;;;5.47;2.78;;;;;;;24.33;38.97;99918.91;4124875;28;20288;-64
2022/08/30 00:45:11;;;;;;;6.13;2.92;;;;;;;24.57;38.62;99909.53;4124105;28;20238;-64
2022/08/30 00:47:14;;;;;;;4.80;2.75;;;;;;;24.62;38.55;99917.78;4122047;28;20288;-64
2022/08/30 00:49:15;;;;;;;6.30;3.05;;;;;;;24.15;38.95;99923.50;4119288;28;20230;-64
2022/08/30 00:51:20;;;;;;;4.78;2.38;;;;;;;24.55;38.54;99919.00;4118517;28;20287;-66
2022/08/30 00:53:29;;;;;;;7.10;2.83;;;;;;;24.52;38.61;99928.47;4121014;28;20230;-63
2022/08/30 00:55:32;;;;;;;4.40;2.83;;;;;;;24.49;38.51;99918.09;4120742;28;20229;-64
2022/08/30 00:57:34;;;;;;;3.53;2.85;;;;;;;24.98;38.29;99926.47;4122636;28;20293;-65
2022/08/30 00:59:37;;;;;;;3.78;2.13;;;;;;;24.55;39.05;99928.00;4119617;28;20230;-63
2022/08/30 01:01:38;;;;;;;4.22;2.53;;;;;;;24.65;38.45;99925.44;4123116;28;20245;-63
2022/08/30 01:03:42;;;;;;;4.45;2.70;;;;;;;25.10;37.77;99918.19;4116681;28;20252;-64
2022/08/30 01:05:45;;;;;;;12.77;3.17;;;;;;;24.62;38.31;99923.19;4124486;28;20707;-63
2022/08/30 01:07:46;;;;;;;4.93;2.90;;;;;;;24.13;38.85;99942.75;4121713;28;20293;-64
2022/08/30 01:09:48;;;;;;;5.10;2.83;;;;;;;24.36;38.83;99929.28;4122536;28;20658;-64
2022/08/30 01:11:50;;;;;;;5.75;3.05;;;;;;;24.71;38.70;99914.63;4122439;28;20295;-62
2022/08/30 01:13:53;;;;;;;3.55;2.13;;;;;;;24.53;38.53;99911.13;4116999;28;20593;-62
2022/08/30 01:15:55;;;;;;;5.40;2.50;;;;;;;24.52;38.53;99917.59;4122623;28;20234;-64
2022/08/30 01:17:57;;;;;;;3.88;2.53;;;;;;;24.72;38.29;99914.38;4119295;28;20285;-63
2022/08/30 01:20:21;;;;;;;8.93;3.00;;;;;;;24.96;38.57;99908.75;4119879;28;20611;-62
2022/08/30 01:22:42;;;;;;;5.30;2.78;;;;;;;24.59;38.89;99907.38;4109803;28;20754;-63
2022/08/30 01:24:46;;;;;;;5.37;2.80;;;;;;;24.14;38.88;99927.25;4121842;28;20852;-63
2022/08/30 01:26:48;;;;;;;3.95;2.58;;;;;;;24.17;39.31;99909.69;4120624;28;20238;-62
2022/08/30 01:28:54;;;;;;;5.07;2.92;;;;;;;24.47;39.08;99912.09;4122331;28;20288;-66
2022/08/30 01:30:55;;;;;;;5.13;2.45;;;;;;;24.67;38.43;99898.81;4121129;28;20292;-63
2022/08/30 01:33:00;;;;;;;3.42;2.53;;;;;;;24.27;39.05;99920.72;4119740;28;20258;-63
2022/08/30 01:35:02;;;;;;;6.27;3.03;;;;;;;24.52;38.58;99920.31;4120471;28;20595;-64
2022/08/30 01:37:04;;;;;;;7.35;2.80;;;;;;;24.45;38.96;99923.22;4118114;28;20234;-63
2022/08/30 01:39:06;;;;;;;4.50;2.97;;;;;;;24.55;38.49;99916.28;4119761;28;20284;-66
2022/08/30 01:41:18;;;;;;;3.25;2.28;;;;;;;24.95;38.09;99918.00;4118255;28;20230;-63
2022/08/30 01:43:20;;;;;;;6.07;2.63;;;;;;;25.10;37.95;99915.47;4120019;28;20222;-63
2022/08/30 01:45:21;;;;;;;3.17;2.25;;;;;;;23.91;39.21;99929.03;4118661;28;20836;-64
2022/08/30 01:47:23;;;;;;;5.78;2.40;;;;;;;24.05;38.82;99923.31;4122635;28;20292;-64
2022/08/30 01:49:25;;;;;;;4.18;2.20;;;;;;;24.46;38.67;99921.31;4120209;28;20235;-62
2022/08/30 01:51:29;;;;;;;6.47;2.50;;;;;;;24.31;39.08;99908.28;4121210;28;20241;-63
2022/08/30 01:53:31;;;;;;;3.38;2.33;;;;;;;23.93;39.66;99905.19;4121711;28;20237;-64
2022/08/30 01:55:33;;;;;;;5.25;2.83;;;;;;;23.87;39.59;99905.34;4118855;28;20826;-63
2022/08/30 01:57:35;;;;;;;7.57;3.07;;;;;;;23.88;39.19;99902.38;4122500;28;20238;-64
2022/08/30 01:59:38;;;;;;;4.87;2.97;;;;;;;23.81;39.77;99904.44;4117061;28;20293;-64
2022/08/30 02:01:41;;;;;;;4.40;2.90;;;;;;;24.26;39.18;99891.91;4122094;28;20241;-63
2022/08/30 02:03:44;;;;;;;5.87;2.63;;;;;;;23.82;39.76;99900.63;4117262;28;20886;-64
2022/08/30 02:05:47;;;;;;;4.30;2.60;;;;;;;23.88;39.56;99890.69;4120460;28;20239;-63
2022/08/30 02:07:48;;;;;;;4.57;2.88;;;;;;;24.55;39.01;99889.09;4119986;28;20694;-63
2022/08/30 02:09:51;;;;;;;3.57;2.13;;;;;;;24.28;39.02;99911.53;4124381;28;20234;-64
2022/08/30 02:11:53;;;;;;;5.60;2.70;;;;;;;23.48;40.21;99921.41;4121097;28;20288;-63
2022/08/30 02:13:55;;;;;;;4.63;2.85;;;;;;;24.13;39.22;99901.19;4123587;28;20616;-64
2022/08/30 02:15:57;;;;;;;4.60;2.42;;;;;;;24.48;39.06;99894.69;4121779;28;20233;-64
2022/08/30 02:17:59;;;;;;;5.15;2.70;;;;;;;24.47;39.23;99903.94;4118784;28;20295;-64
2022/08/30 02:20:02;;;;;;;5.03;2.90;;;;;;;24.30;39.03;99896.59;4120183;28;20234;-64
2022/08/30 02:22:04;;;;;;;4.60;2.50;;;;;;;23.87;40.01;99905.34;4117179;28;20293;-63
2022/08/30 02:24:06;;;;;;;5.40;2.42;;;;;;;23.29;40.53;99912.59;4122540;28;20292;-63
2022/08/30 02:26:08;;;;;;;7.60;2.90;;;;;;;23.84;39.59;99895.81;4118968;28;20234;-62
2022/08/30 02:28:10;;;;;;;4.68;2.50;;;;;;;24.27;38.98;99894.38;4123664;28;20742;-64
2022/08/30 02:30:15;;;;;;;4.88;3.03;;;;;;;24.12;39.57;99902.25;4120222;28;20312;-64
2022/08/30 02:32:17;;;;;;;4.28;3.00;;;;;;;24.17;39.28;99896.94;4121133;28;20268;-63
2022/08/30 02:34:19;;;;;;;4.40;2.80;;;;;;;23.73;39.75;99893.97;4120605;28;20595;-64
2022/08/30 02:36:20;;;;;;;3.20;2.20;;;;;;;23.83;40.06;99883.28;4118341;28;20235;-63
2022/08/30 02:38:23;;;;;;;4.27;2.67;;;;;;;24.45;38.95;99885.16;4120517;28;21072;-63
2022/08/30 02:40:24;;;;;;;5.43;3.23;;;;;;;23.64;39.80;99903.56;4115166;28;20669;-63
2022/08/30 02:42:26;;;;;;;4.57;2.50;;;;;;;23.44;40.15;99904.78;4136530;28;20249;-63
2022/08/30 02:44:28;;;;;;;6.40;3.15;;;;;;;23.71;39.65;99898.81;4120839;28;20292;-64
2022/08/30 02:46:29;;;;;;;3.77;2.50;;;;;;;24.10;39.27;99888.09;4119165;28;20277;-64
2022/08/30 02:48:35;;;;;;;5.13;2.90;;;;;;;24.33;39.00;99878.16;4118293;28;20887;-64
2022/08/30 02:50:44;;;;;;;3.73;2.60;;;;;;;24.41;38.86;99873.16;4117612;28;20670;-64
2022/08/30 02:52:46;;;;;;;4.60;2.67;;;;;;;23.73;39.81;99886.63;4121866;28;20245;-64
2022/08/30 02:54:49;;;;;;;4.37;3.03;;;;;;;23.55;40.17;99871.38;4120573;28;20626;-64
2022/08/30 02:56:50;;;;;;;6.50;3.33;;;;;;;23.72;39.92;99878.72;4121090;28;20284;-63
2022/08/30 02:58:52;;;;;;;3.60;2.57;;;;;;;23.47;40.16;99868.19;4118224;28;20239;-64
2022/08/30 03:00:54;;;;;;;4.90;2.80;;;;;;;22.98;40.83;99874.00;4120382;28;20234;-64
2022/08/30 03:02:56;;;;;;;5.63;3.00;;;;;;;23.20;40.68;99869.56;4117001;28;20740;-62
2022/08/30 03:04:58;;;;;;;7.60;3.10;;;;;;;23.45;40.30;99870.31;4118664;28;20233;-63
2022/08/30 03:06:59;;;;;;;5.00;3.00;;;;;;;23.38;40.66;99865.88;4121849;28;20723;-63
2022/08/30 03:09:01;;;;;;;8.43;3.03;;;;;;;22.84;41.33;99873.38;4119943;28;20234;-62
2022/08/30 03:11:04;;;;;;;5.30;2.90;;;;;;;23.52;40.47;99858.25;4123241;28;20257;-64
2022/08/30 03:13:09;;;;;;;7.97;2.67;;;;;;;23.23;40.78;99870.97;4120113;28;20234;-64
2022/08/30 03:15:12;;;;;;;6.30;2.63;;;;;;;23.34;40.49;99867.41;4121440;28;20661;-63
2022/08/30 03:17:14;;;;;;;6.67;2.83;;;;;;;23.24;40.91;99880.75;4119127;28;20242;-64
2022/08/30 03:19:16;;;;;;;5.07;2.93;;;;;;;23.06;41.27;99857.34;4123054;28;20878;-63
2022/08/30 03:21:18;;;;;;;6.03;3.13;;;;;;;23.19;40.62;99854.34;4120195;28;20253;-63
2022/08/30 03:23:19;;;;;;;6.00;3.60;;;;;;;22.95;41.20;99867.16;4117740;28;20257;-64
2022/08/30 03:25:23;;;;;;;6.53;3.00;;;;;;;23.14;40.93;99858.84;4119353;28;20239;-62
2022/08/30 03:27:26;;;;;;;3.33;2.57;;;;;;;23.38;40.46;99865.03;4120340;28;20268;-63
2022/08/30 03:29:28;;;;;;;6.00;2.90;;;;;;;23.71;40.04;99858.91;4120950;28;20231;-64
2022/08/30 03:31:30;;;;;;;9.97;3.30;;;;;;;23.29;40.82;99882.75;4116015;28;20752;-64
2022/08/30 03:33:53;;;;;;;6.27;2.63;;;;;;;23.01;41.24;99877.06;4118424;28;20715;-63
2022/08/30 03:35:54;;;;;;;6.57;3.00;;;;;;;23.65;40.13;99875.34;4120404;28;20293;-67
2022/08/30 03:37:57;;;;;;;4.80;2.37;;;;;;;23.46;40.50;99870.06;4123210;28;20853;-67
2022/08/30 03:39:59;;;;;;;7.60;2.63;;;;;;;23.80;39.99;99878.34;4118632;28;20294;-63
2022/08/30 03:42:02;;;;;;;5.73;2.90;;;;;;;23.25;40.85;99876.16;4117767;28;20233;-64
2022/08/30 03:44:04;;;;;;;5.77;3.00;;;;;;;23.13;40.93;99874.31;4121436;28;20292;-64
2022/08/30 03:46:06;;;;;;;5.73;2.77;;;;;;;23.01;41.23;99862.66;4120386;28;20250;-63
2022/08/30 03:48:08;;;;;;;4.80;2.77;;;;;;;22.99;41.13;99867.50;4122287;28;20601;-64
2022/08/30 03:50:11;;;;;;;4.67;2.83;;;;;;;22.17;42.59;99870.97;4121194;28;20222;-64
2022/08/30 03:52:12;;;;;;;6.37;2.70;;;;;;;23.19;40.81;99851.63;4118632;28;20234;-64
2022/08/30 03:54:14;;;;;;;5.20;2.60;;;;;;;22.00;42.60;99865.41;4122973;28;20222;-63
2022/08/30 03:56:17;;;;;;;6.57;2.77;;;;;;;22.81;41.38;99853.00;4122708;28;20230;-64
2022/08/30 03:58:19;;;;;;;4.60;2.53;;;;;;;22.42;41.97;99858.09;4117584;28;20669;-64
2022/08/30 04:00:21;;;;;;;3.50;2.80;;;;;;;22.80;41.12;99873.03;4119697;28;20261;-64
2022/08/30 04:02:23;;;;;;;9.03;3.23;;;;;;;22.28;42.06;99862.88;4105849;28;20223;-63
2022/08/30 04:04:25;;;;;;;5.83;2.80;;;;;;;22.89;41.32;99848.28;4116674;28;20226;-64
2022/08/30 04:06:27;;;;;;;6.57;3.10;;;;;;;22.70;41.50;99867.38;4120773;28;20871;-64
2022/08/30 04:08:28;;;;;;;3.40;2.40;;;;;;;23.00;40.97;99869.16;4120587;28;20249;-64
2022/08/30 04:10:31;;;;;;;7.00;3.20;;;;;;;22.67;41.54;99870.56;4125904;28;20632;-64
2022/08/30 04:12:32;;;;;;;7.00;3.30;;;;;;;23.02;41.09;99859.69;4121699;28;20664;-64
2022/08/30 04:14:34;;;;;;;5.27;2.67;;;;;;;23.61;40.08;99858.72;4120956;28;20296;-63
2022/08/30 04:16:35;;;;;;;3.97;2.90;;;;;;;23.56;39.92;99873.00;4123499;28;20238;-63
2022/08/30 04:18:37;;;;;;;5.83;2.83;;;;;;;23.22;40.60;99882.91;4122863;28;20328;-64
2022/08/30 04:20:39;;;;;;;6.03;3.30;;;;;;;22.76;41.23;99885.41;4124191;28;20626;-64
2022/08/30 04:22:41;;;;;;;4.63;2.73;;;;;;;23.40;40.46;99868.34;4123628;28;20277;-63
2022/08/30 04:24:43;;;;;;;6.10;3.17;;;;;;;22.70;41.17;99894.47;4123529;28;20791;-64
2022/08/30 04:26:44;;;;;;;6.07;3.23;;;;;;;22.41;41.70;99888.94;4123625;28;20239;-64
2022/08/30 04:28:46;;;;;;;6.90;2.60;;;;;;;22.73;41.21;99883.19;4120430;28;20238;-64
2022/08/30 04:30:48;;;;;;;6.47;2.77;;;;;;;23.30;40.75;99868.13;4125210;28;20233;-64
2022/08/30 04:32:49;;;;;;;5.60;2.70;;;;;;;22.17;41.96;99904.31;4121844;28;20398;-64
2022/08/30 04:34:57;;;;;;;5.63;3.23;;;;;;;23.50;40.22;99873.97;4125266;28;20640;-64
2022/08/30 04:36:59;;;;;;;6.37;2.90;;;;;;;23.22;40.56;99891.03;4124445;28;20230;-64
2022/08/30 04:39:00;;;;;;;4.50;2.80;;;;;;;22.90;41.12;99894.13;4124263;28;20618;-64
2022/08/30 04:41:07;;;;;;;6.53;2.87;;;;;;;23.70;40.00;99880.88;4117735;28;20230;-64
2022/08/30 04:43:11;;;;;;;5.13;2.80;;;;;;;23.36;40.35;99891.59;4124663;28;20225;-64
2022/08/30 04:45:15;;;;;;;6.33;2.60;;;;;;;23.28;40.45;99897.38;4119350;28;20703;-63
2022/08/30 04:47:17;;;;;;;4.77;2.83;;;;;;;22.99;41.24;99881.88;4122457;28;20810;-63
2022/08/30 04:49:19;;;;;;;5.77;2.63;;;;;;;22.96;41.33;99882.38;4124830;28;20300;-64
2022/08/30 04:51:20;;;;;;;7.13;2.90;;;;;;;23.15;41.00;99876.78;4123541;28;20230;-67
2022/08/30 04:53:22;;;;;;;8.90;2.93;;;;;;;23.26;40.71;99888.66;4118823;28;20239;-64
2022/08/30 04:55:25;;;;;;;5.10;3.23;;;;;;;22.73;41.69;99887.78;4124306;28;20226;-64
2022/08/30 04:57:27;;;;;;;5.10;3.10;;;;;;;22.99;41.04;99890.00;4122274;28;20284;-63
2022/08/30 04:59:29;;;;;;;5.23;2.87;;;;;;;23.54;40.70;99880.53;4120315;28;20235;-64
2022/08/30 05:01:32;;;;;;;4.83;2.90;;;;;;;23.09;41.30;99891.31;4124438;28;20230;-64
2022/08/30 05:03:48;;;;;;;6.57;2.90;;;;;;;22.87;41.40;99907.34;4115757;28;20900;-64
2022/08/30 05:05:50;;;;;;;7.00;3.13;;;;;;;22.92;41.50;99913.72;4120925;28;20792;-63
2022/08/30 05:07:52;;;;;;;5.13;2.60;;;;;;;22.72;42.02;99919.47;4120987;28;20309;-64
2022/08/30 05:09:53;;;;;;;6.97;2.93;;;;;;;22.56;42.41;99903.94;4124571;28;21005;-64
2022/08/30 05:11:55;;;;;;;4.97;2.77;;;;;;;22.73;41.53;99925.72;4122326;28;20234;-63
2022/08/30 05:13:57;;;;;;;4.37;2.47;;;;;;;22.87;41.81;99920.88;4125042;28;20234;-64
2022/08/30 05:15:59;;;;;;;5.40;3.23;;;;;;;23.15;41.26;99925.63;4124194;28;20230;-64
2022/08/30 05:18:02;;;;;;;5.53;3.20;;;;;;;23.42;40.97;99915.06;4117140;28;20332;-64
2022/08/30 05:20:07;;;;;;;7.20;2.70;;;;;;;22.79;42.01;99930.19;4125195;28;20226;-64
2022/08/30 05:22:09;;;;;;;5.17;2.70;;;;;;;22.87;41.77;99937.16;4126746;28;20226;-64
2022/08/30 05:24:10;;;;;;;7.10;2.97;;;;;;;22.79;41.95;99935.59;4122501;28;20793;-63
2022/08/30 05:26:19;;;;;;;6.77;3.40;;;;;;;22.68;42.00;99950.81;4121841;28;20234;-64
2022/08/30 05:28:21;;;;;;;7.97;3.00;;;;;;;22.64;42.33;99938.78;4113201;28;20283;-64
2022/08/30 05:30:27;;;;;;;6.40;3.00;;;;;;;22.69;42.34;99928.06;4120990;28;20235;-63
2022/08/30 05:32:29;;;;;;;7.60;3.37;;;;;;;22.79;42.03;99925.63;4124482;28;20266;-63
2022/08/30 05:34:30;;;;;;;6.03;3.00;;;;;;;22.73;42.34;99915.69;4120361;28;20241;-64
2022/08/30 05:36:34;;;;;;;6.63;2.93;;;;;;;22.73;42.49;99909.47;4124239;28;20296;-64
2022/08/30 05:38:36;;;;;;;4.37;2.83;;;;;;;22.15;43.36;99906.41;4120251;28;20238;-64
2022/08/30 05:40:41;;;;;;;7.83;2.97;;;;;;;22.25;43.22;99903.97;4118643;28;20261;-65
2022/08/30 05:42:44;;;;;;;6.63;2.93;;;;;;;22.26;42.96;99912.91;4123927;28;20257;-64
2022/08/30 05:44:50;;;;;;;4.60;3.07;;;;;;;22.54;42.96;99903.31;4116947;28;20667;-64
2022/08/30 05:46:52;;;;;;;5.30;3.17;;;;;;;23.15;41.87;99910.16;4120718;28;20234;-65
2022/08/30 05:48:55;;;;;;;6.40;3.20;;;;;;;22.82;42.20;99927.81;4120184;28;20272;-62
2022/08/30 05:51:06;;;;;;;6.33;2.97;;;;;;;22.69;42.40;99922.63;4122746;28;20297;-63
2022/08/30 05:53:08;;;;;;;4.37;2.87;;;;;;;22.62;42.72;99917.38;4119902;28;20296;-63
2022/08/30 05:55:10;;;;;;;5.00;3.30;;;;;;;22.12;43.73;99928.56;4122225;28;20238;-63
2022/08/30 05:57:12;;;;;;;5.80;2.97;;;;;;;23.22;41.67;99910.03;4123310;28;20242;-64
2022/08/30 05:59:14;;;;;;;4.83;2.90;;;;;;;23.53;41.54;99913.34;4120539;28;20300;-64
2022/08/30 06:01:22;;;;;;;3.87;2.53;;;;;;;22.98;42.14;99923.63;4122568;28;20234;-64
2022/08/30 06:03:24;;;;;;;5.37;3.00;;;;;;;23.25;41.87;99919.56;4099644;28;20230;-64
2022/08/30 06:05:27;;;;;;;7.30;2.70;;;;;;;22.33;43.09;99940.75;4119115;28;20273;-64
2022/08/30 06:07:33;;;;;;;6.93;2.80;;;;;;;22.22;43.26;99934.22;4122256;28;20280;-64
2022/08/30 06:09:35;;;;;;;8.20;2.70;;;;;;;22.76;42.60;99928.78;4122311;28;20226;-63
2022/08/30 06:11:37;;;;;;;5.67;3.13;;;;;;;23.22;41.86;99917.34;4120160;28;20234;-65
2022/08/30 06:13:39;;;;;;;5.10;2.50;;;;;;;23.13;42.08;99925.84;4119318;28;20233;-64
2022/08/30 06:15:45;;;;;;;7.87;2.70;;;;;;;23.28;41.95;99927.22;4123199;28;20242;-64
2022/08/30 06:17:47;;;;;;;7.47;2.83;;;;;;;22.81;42.33;99944.31;4118618;28;20230;-65
2022/08/30 06:19:49;;;;;;;5.20;3.03;;;;;;;22.72;43.02;99937.63;4124341;28;20226;-64
2022/08/30 06:21:50;;;;;;;7.20;3.93;;;;;;;22.87;42.64;99939.88;4121132;28;20230;-64
2022/08/30 06:23:53;;;;;;;4.57;2.70;;;;;;;23.33;41.87;99938.19;4122640;28;20230;-64
2022/08/30 06:25:54;;;;;;;7.03;3.13;;;;;;;23.32;42.16;99950.13;4112023;28;20241;-64
2022/08/30 06:27:56;;;;;;;5.93;3.37;;;;;;;22.10;43.53;99958.56;4118662;28;20276;-65
2022/08/30 06:29:58;;;;;;;5.20;2.63;;;;;;;22.95;42.83;99936.84;4122233;28;20312;-65
2022/08/30 06:31:59;;;;;;;5.90;3.10;;;;;;;23.28;42.07;99943.50;4118747;28;20305;-65
2022/08/30 06:34:01;;;;;;;4.80;2.77;;;;;;;23.12;42.34;99936.94;4122299;28;20253;-64
2022/08/30 06:36:05;;;;;;;5.67;2.53;;;;;;;22.86;43.12;99943.63;4117565;28;20242;-64
2022/08/30 06:38:07;;;;;;;4.23;2.80;;;;;;;22.69;42.92;99946.22;4122442;28;20766;-65
2022/08/30 06:40:09;;;;;;;6.73;3.47;;;;;;;22.97;42.82;99942.84;4122700;28;20257;-65
2022/08/30 06:42:11;;;;;;;7.00;3.10;;;;;;;22.97;42.90;99935.53;4119247;28;20289;-65
2022/08/30 06:44:13;;;;;;;4.90;2.97;;;;;;;22.62;43.42;99940.91;4123054;28;20226;-65
2022/08/30 06:46:23;;;;;;;5.30;3.07;;;;;;;23.53;42.04;99937.78;4119165;28;20233;-65
2022/08/30 06:48:25;;;;;;;5.03;3.27;;;;;;;23.29;42.28;99948.69;4122504;28;20260;-63
2022/08/30 06:50:27;;;;;;;4.87;3.07;;;;;;;23.23;42.42;99952.34;4120748;28;20225;-64
2022/08/30 06:52:29;;;;;;;14.10;4.27;;;;;;;23.20;42.51;99955.56;4118741;28;20742;-65
2022/08/30 06:54:31;;;;;;;4.47;3.13;;;;;;;23.08;42.66;99958.28;4119488;28;20965;-64
2022/08/30 06:56:33;;;;;;;5.57;3.10;;;;;;;23.54;42.43;99956.53;4120867;28;20297;-65
2022/08/30 06:58:38;;;;;;;4.57;3.10;;;;;;;23.54;42.37;99951.09;4120004;28;20234;-63
2022/08/30 07:00:40;;;;;;;6.97;3.47;;;;;;;23.60;42.09;99959.38;4123512;28;20243;-64
2022/08/30 07:02:42;;;;;;;6.07;2.80;;;;;;;23.55;42.32;99957.34;4120099;28;20233;-64
2022/08/30 07:04:44;;;;;;;5.50;3.33;;;;;;;22.95;43.13;99953.91;4121280;28;20289;-64
2022/08/30 07:06:45;;;;;;;6.37;3.43;;;;;;;23.92;42.12;99944.28;4120628;28;20782;-65
2022/08/30 07:08:49;;;;;;;4.93;3.43;;;;;;;23.20;43.04;99953.66;4121793;28;20288;-64
2022/08/30 07:10:56;;;;;;;6.60;3.13;;;;;;;23.39;42.73;99954.31;4113431;28;20245;-65
2022/08/30 07:12:58;;;;;;;8.37;4.13;;;;;;;23.05;43.16;99964.19;4114890;28;20806;-64
2022/08/30 07:15:02;;;;;;;7.07;3.33;;;;;;;24.09;42.22;99954.34;4121556;28;20662;-65
2022/08/30 07:19:32;;;;;;;7.63;3.40;;;;;;;23.88;42.45;99958.59;4108887;28;20317;-65
2022/08/30 07:21:42;;;;;;;6.75;3.20;;;;;;;24.20;42.51;99958.94;4122309;28;20679;-65
2022/08/30 07:23:47;;;;;;;5.13;3.00;;;;;;;23.90;42.59;99968.13;4118180;28;20288;-65
2022/08/30 07:25:53;;;;;;;7.32;3.10;;;;;;;23.38;43.36;99977.13;4118441;28;20357;-65
2022/08/30 07:27:55;;;;;;;8.50;3.30;;;;;;;24.59;42.23;99964.47;4121170;28;20240;-65
2022/08/30 07:29:59;;;;;;;6.75;3.67;;;;;;;24.19;42.79;99972.75;4118716;28;20230;-65
2022/08/30 07:32:01;;;;;;;5.65;2.88;;;;;;;24.56;42.06;99964.97;4121102;28;20670;-64
2022/08/30 07:34:05;;;;;;;4.50;3.15;;;;;;;24.22;42.76;99977.69;4120786;28;20300;-65
2022/08/30 07:36:07;;;;;;;5.90;3.33;;;;;;;24.31;42.74;99982.50;4122494;28;20227;-64
2022/08/30 07:38:12;;;;;;;9.20;3.30;;;;;;;24.50;42.93;99964.06;4119159;28;20231;-64
2022/08/30 07:40:14;;;;;;;6.47;3.10;;;;;;;24.79;42.37;99966.72;4121873;28;20261;-65
2022/08/30 07:42:16;;;;;;;5.72;2.90;;;;;;;24.50;42.60;99968.69;4116485;28;20236;-65
2022/08/30 07:44:18;;;;;;;4.65;3.00;;;;;;;24.67;42.28;99980.38;4114724;28;20226;-64
2022/08/30 07:46:24;;;;;;;8.88;3.10;;;;;;;25.05;41.99;99962.50;4123273;28;20230;-64
2022/08/30 07:48:26;;;;;;;5.63;3.38;;;;;;;24.25;42.88;99982.66;4123255;28;20288;-64
2022/08/30 07:50:28;;;;;;;5.78;3.45;;;;;;;24.26;43.05;99967.97;4118133;28;20233;-63
2022/08/30 07:52:29;;;;;;;4.88;2.85;;;;;;;24.19;43.15;99976.28;4121407;28;20273;-65
2022/08/30 07:54:31;;;;;;;5.13;3.53;;;;;;;25.26;42.15;99960.03;4122835;28;20237;-64
2022/08/30 07:56:33;;;;;;;7.80;3.67;;;;;;;24.77;42.60;99976.22;4122087;28;20301;-64
2022/08/30 07:58:38;;;;;;;7.03;3.30;;;;;;;24.70;42.75;99973.63;4123734;28;20292;-63
2022/08/30 08:00:41;;;;;;;8.70;3.20;;;;;;;25.50;41.76;99968.00;4127027;28;20312;-64
2022/08/30 08:02:44;;;;;;;6.05;3.10;;;;;;;24.77;42.60;99978.94;4124363;28;20230;-65
2022/08/30 08:04:47;;;;;;;5.57;3.67;;;;;;;25.04;42.75;99971.72;4122690;28;20381;-65
2022/08/30 08:06:49;;;;;;;5.80;3.40;;;;;;;25.59;41.59;99969.19;4124753;28;20324;-63
2022/08/30 08:08:51;;;;;;;10.27;3.40;;;;;;;24.78;42.60;99983.28;4139316;28;20258;-65
2022/08/30 08:10:54;;;;;;;7.70;3.40;;;;;;;24.97;42.83;99967.50;4119439;28;20230;-65
2022/08/30 08:12:56;;;;;;;6.93;3.28;;;;;;;24.38;43.60;99976.06;4121060;28;20759;-65
2022/08/30 08:14:57;;;;;;;5.30;3.30;;;;;;;24.89;42.78;99966.06;4124296;28;20233;-65
2022/08/30 08:17:00;;;;;;;7.53;3.75;;;;;;;24.65;42.91;99974.38;4124121;28;20230;-65
2022/08/30 08:19:03;;;;;;;7.20;3.60;;;;;;;24.62;42.98;99969.41;4124643;28;20230;-65
2022/08/30 08:21:05;;;;;;;8.18;3.47;;;;;;;25.54;42.11;99964.53;4123236;28;20716;-65
2022/08/30 08:23:06;;;;;;;4.78;3.25;;;;;;;24.98;42.81;99969.97;4119226;28;20234;-65
2022/08/30 08:25:08;;;;;;;8.27;3.40;;;;;;;25.11;42.62;99970.72;4122035;28;20238;-64
2022/08/30 08:27:10;;;;;;;5.25;3.28;;;;;;;24.61;43.38;99981.34;4123661;28;20245;-66
2022/08/30 08:29:11;;;;;;;5.97;3.50;;;;;;;25.60;42.14;99962.69;4122873;28;20234;-65
2022/08/30 08:31:19;;;;;;;9.48;3.60;;;;;;;26.26;41.02;99969.94;4123666;28;20242;-65
2022/08/30 08:33:21;;;;;;;7.53;3.58;;;;;;;25.30;42.68;99976.69;4121120;28;20237;-65
2022/08/30 08:35:23;;;;;;;5.75;3.50;;;;;;;25.19;43.04;99973.03;4124278;28;20226;-64
2022/08/30 08:37:26;;;;;;;6.20;3.30;;;;;;;25.25;42.87;99977.44;4126266;28;20369;-65
2022/08/30 08:39:28;;;;;;;5.85;3.40;;;;;;;25.74;42.15;99966.63;4124719;28;20257;-65
2022/08/30 08:41:52;;;;;;;7.95;3.40;;;;;;;26.28;41.80;99949.50;4123756;28;20662;-65
2022/08/30 08:43:54;;;;;;;6.10;3.20;;;;;;;25.12;43.32;99969.63;4122253;28;20668;-65
2022/08/30 08:46:22;;;;;;;9.05;3.47;;;;;;;25.67;42.57;99962.47;4120254;28;20640;-66
2022/08/30 08:48:42;;;;;;;10.98;3.60;;;;;;;26.45;41.74;99943.91;4122290;28;20305;-64
2022/08/30 08:53:36;;;;;;;7.47;3.80;;;;;;;26.04;42.41;99954.47;4121482;28;20233;-64
2022/08/30 08:55:51;;;;;;;7.30;3.47;;;;;;;26.01;42.39;99954.16;4118570;28;20285;-65
2022/08/30 08:57:53;;;;;;;6.68;3.50;;;;;;;26.20;41.91;99958.19;4121311;28;20260;-64
2022/08/30 08:59:55;;;;;;;6.75;3.65;;;;;;;26.76;41.95;99954.25;4124071;28;20279;-65
2022/08/30 09:02:00;;;;;;;8.48;4.38;;;;;;;26.64;42.43;99949.00;4120115;28;20234;-64
2022/08/30 09:04:09;;;;;;;7.60;3.67;;;;;;;27.36;40.99;99947.53;4120150;28;20230;-64
2022/08/30 09:06:22;;;;;;;7.32;3.72;;;;;;;26.91;41.21;99962.56;4121800;28;20230;-64
2022/08/30 09:08:24;;;;;;;5.63;3.70;;;;;;;26.70;41.55;99954.22;4132520;28;20311;-65
2022/08/30 09:10:26;;;;;;;9.18;4.13;;;;;;;26.90;41.05;99961.72;4119474;28;20297;-64
2022/08/30 09:12:48;;;;;;;6.00;3.95;;;;;;;26.39;42.65;99944.97;4117830;28;20333;-65
2022/08/30 09:15:00;;;;;;;8.27;3.70;;;;;;;27.26;41.54;99948.34;4120584;28;20718;-64
2022/08/30 09:17:15;;;;;;;4.65;3.30;;;;;;;27.29;41.47;99948.88;4121660;28;20234;-65
2022/08/30 09:19:30;;;;;;;6.55;3.50;;;;;;;27.23;41.29;99943.41;4121580;28;20693;-64
2022/08/30 09:21:35;;;;;;;8.65;3.83;;;;;;;26.58;42.18;99947.34;4138871;28;20233;-63
2022/08/30 09:23:47;;;;;;;6.57;3.72;;;;;;;27.56;41.21;99937.78;4118616;28;20316;-65
2022/08/30 09:26:05;;;;;;;7.38;3.60;;;;;;;27.31;41.45;99943.97;4120489;28;20230;-64
2022/08/30 09:28:14;;;;;;;6.15;3.20;;;;;;;27.07;41.44;99953.41;4121186;28;20218;-65
2022/08/30 09:30:19;;;;;;;4.57;3.00;;;;;;;26.64;42.01;99951.72;4115078;28;20231;-64
2022/08/30 09:32:34;;;;;;;7.90;3.53;;;;;;;27.62;41.28;99923.91;4118491;28;20593;-63
2022/08/30 09:34:37;;;;;;;9.27;3.83;;;;;;;27.09;42.11;99925.84;4120358;28;20244;-65
2022/08/30 09:36:54;;;;;;;5.80;4.03;;;;;;;27.62;41.16;99926.66;4122550;28;20245;-65
2022/08/30 09:39:05;;;;;;;4.63;3.20;;;;;;;27.32;41.11;99934.72;4122032;28;20319;-66
2022/08/30 09:41:37;;;;;;;7.35;3.78;;;;;;;27.73;40.43;99932.94;4122729;28;20880;-65
2022/08/30 09:43:38;;;;;;;7.13;3.80;;;;;;;27.66;40.82;99950.69;4118600;28;20238;-65
2022/08/30 09:45:42;;;;;;;6.72;3.78;;;;;;;27.92;40.83;99935.16;4121691;28;20284;-65
2022/08/30 09:47:44;;;;;;;6.90;3.83;;;;;;;28.22;40.50;99931.69;4122568;28;20237;-65
2022/08/30 09:49:46;;;;;;;6.78;4.00;;;;;;;27.91;40.95;99945.28;4122967;28;20284;-65